Data for 07/01/2013

Time Sea-Level Adjusted Pressure Absolute Pressure Temperature Relative Humidity Dew Point   
(mb) (inHg) (mb) (inHg) (C) (F) (%) (C) (F)
00:05 1024 30.24 853 25.19 22 71.5 56 12.9 55.2
00:10 1024 30.24 854 25.22 22 71.5 56 12.8 55.1
00:15 1024 30.24 853 25.19 22 71.6 55 12.7 54.9
00:20 1024 30.24 854 25.22 22 71.6 55 12.7 54.8
00:25 1024 30.24 854 25.22 22 71.5 55 12.8 55
00:30 1024 30.24 854 25.22 21.9 71.4 56 12.8 55
00:35 1024 30.24 854 25.22 21.9 71.3 56 12.8 55
00:40 1024 30.24 854 25.22 21.7 71.1 57 12.9 55.2
00:45 1024 30.24 854 25.22 21.5 70.7 58 12.9 55.2
00:50 1025 30.27 854 25.22 21.4 70.4 58 12.9 55.2
00:55 1025 30.27 854 25.22 21.3 70.3 58 12.8 55
01:00 1025 30.27 854 25.22 21.2 70.2 58 12.9 55.2
01:05 1025 30.27 854 25.22 21 69.7 60 13.1 55.5
01:10 1025 30.27 854 25.22 20.6 69 61 13 55.4
01:15 1024 30.24 854 25.22 20.2 68.4 64 13.2 55.8
01:20 1024 30.24 854 25.22 20 67.9 63 12.9 55.2
01:25 1025 30.27 854 25.22 20.1 68.1 63 12.9 55.2
01:30 1024 30.24 854 25.22 20.2 68.3 63 12.9 55.2
01:35 1024 30.24 854 25.22 20.2 68.3 63 12.9 55.2
01:40 1025 30.27 854 25.22 20.1 68.1 63 12.9 55.3
01:45 1025 30.27 854 25.22 20 68 64 12.9 55.3
01:50 1025 30.27 854 25.22 20 68 63 12.9 55.2
01:55 1025 30.27 854 25.22 20.1 68.2 62 12.8 55
02:00 1025 30.27 854 25.22 20.3 68.5 61 12.6 54.7
02:05 1025 30.27 854 25.22 20.3 68.6 62 12.8 55.1
02:10 1024 30.24 854 25.22 20.1 68.2 63 12.9 55.3
02:15 1024 30.24 854 25.22 19.8 67.6 65 13.1 55.5
02:20 1024 30.24 854 25.22 19.4 67 66 13 55.4
02:25 1024 30.24 854 25.22 19.4 66.8 65 12.8 55.1
02:30 1024 30.24 854 25.22 19.3 66.7 66 13 55.3
02:35 1025 30.27 854 25.22 19.1 66.3 67 12.8 55
02:40 1025 30.27 854 25.22 19 66.3 67 12.8 55
02:45 1025 30.27 854 25.22 19 66.2 67 12.8 55.1
02:50 1025 30.27 854 25.22 18.9 66 68 12.8 55.1
02:55 1025 30.27 854 25.22 18.8 65.9 68 12.8 55
03:00 1025 30.27 854 25.22 18.8 65.8 68 12.8 55
03:05 1025 30.27 854 25.22 18.6 65.4 68 12.6 54.7
03:10 1025 30.27 854 25.22 18.5 65.3 68 12.5 54.5
03:15 1025 30.27 854 25.22 18.6 65.4 68 12.5 54.6
03:20 1025 30.27 854 25.22 18.5 65.3 68 12.5 54.5
03:25 1025 30.27 854 25.22 18.4 65.1 68 12.4 54.4
03:30 1025 30.27 854 25.22 18.2 64.7 68 12.2 54
03:35 1025 30.27 854 25.22 18.3 64.9 67 12.2 53.9
03:40 1025 30.27 854 25.22 18.4 65.1 67 12.4 54.2
03:45 1025 30.27 855 25.25 18.4 65 68 12.3 54.2
03:50 1025 30.27 855 25.25 18.3 64.9 68 12.4 54.3
03:55 1025 30.27 855 25.25 18.2 64.7 69 12.5 54.5
04:00 1025 30.27 855 25.25 18.1 64.6 69 12.4 54.3
04:05 1025 30.27 855 25.25 17.5 63.5 72 12.4 54.3
04:10 1026 30.3 855 25.25 17.1 62.8 72 12 53.6
04:15 1026 30.3 855 25.25 17.5 63.6 71 12.2 53.9
04:20 1026 30.3 855 25.25 17.9 64.1 68 11.9 53.4
04:25 1026 30.3 855 25.25 18.1 64.5 70 12.5 54.6
04:30 1026 30.3 855 25.25 17.4 63.3 72 12.3 54.1
04:35 1026 30.3 855 25.25 17.1 62.8 72 12 53.7
04:40 1026 30.3 855 25.25 17.1 62.9 72 12 53.6
04:45 1026 30.3 855 25.25 17.2 62.9 72 12.2 53.9
04:50 1026 30.3 855 25.25 17 62.6 72 12.1 53.7
04:55 1026 30.3 855 25.25 16.9 62.4 74 12.2 54
05:00 1026 30.3 855 25.25 16.9 62.5 73 12.1 53.7
05:05 1026 30.3 855 25.25 17 62.6 72 11.9 53.4
05:10 1026 30.3 855 25.25 17.1 62.7 71 11.9 53.4
05:15 1026 30.3 855 25.25 17.3 63.1 68 11.5 52.6
05:20 1026 30.3 855 25.25 17.4 63.3 67 11.2 52.2
05:25 1026 30.3 855 25.25 17.1 62.7 68 11.2 52.2
05:30 1026 30.3 855 25.25 17 62.5 69 11.3 52.3
05:35 1026 30.3 855 25.25 17.1 62.9 71 11.9 53.4
05:40 1026 30.3 855 25.25 17.2 62.9 69 11.5 52.7
05:45 1026 30.3 855 25.25 17.4 63.3 68 11.4 52.5
05:50 1026 30.3 855 25.25 17.5 63.4 68 11.5 52.7
05:55 1026 30.3 855 25.25 17.6 63.6 68 11.6 52.9
06:00 1026 30.3 855 25.25 17.7 63.8 70 12.2 54
06:05 1026 30.3 855 25.25 18.2 64.7 66 11.9 53.3
06:10 1026 30.3 855 25.25 18 64.3 67 11.9 53.4
06:15 1026 30.3 855 25.25 17.8 64.1 67 11.8 53.2
06:20 1026 30.3 855 25.25 18.1 64.5 65 11.5 52.7
06:25 1026 30.3 855 25.25 18.4 65.1 66 12.1 53.7
06:30 1026 30.3 855 25.25 18.6 65.5 65 11.9 53.4
06:35 1026 30.3 855 25.25 18.8 65.8 64 12 53.6
06:40 1026 30.3 855 25.25 19 66.2 63 11.9 53.5
06:45 1026 30.3 855 25.25 19.4 67 65 12.7 54.9
06:50 1026 30.3 855 25.25 19.9 67.8 65 13.2 55.7
06:55 1026 30.3 855 25.25 20.3 68.6 61 12.6 54.7
07:00 1026 30.3 855 25.25 20.7 69.2 60 12.6 54.8
07:05 1026 30.3 855 25.25 20.9 69.5 59 12.7 54.8
07:10 1026 30.3 855 25.25 20.7 69.2 60 12.7 54.9
07:15 1026 30.3 855 25.25 21.2 70.2 59 13.1 55.5
07:20 1026 30.3 855 25.25 21.2 70.2 60 13.3 56
07:25 1026 30.3 855 25.25 21.6 71 57 13 55.4
07:30 1026 30.3 855 25.25 21.5 70.8 57 12.7 54.8
07:35 1026 30.3 855 25.25 21.7 71.1 57 13 55.4
07:40 1026 30.3 855 25.25 21.9 71.4 55 12.6 54.7
07:45 1026 30.3 855 25.25 22.7 72.9 53 12.8 55
07:50 1026 30.3 855 25.25 22.6 72.7 55 13.4 56.1
07:55 1026 30.3 855 25.25 22.7 72.8 56 13.5 56.4
08:00 1026 30.3 855 25.25 22.8 73 55 13.5 56.2
08:05 1026 30.3 855 25.25 23.4 74.1 54 13.7 56.6
08:10 1026 30.3 855 25.25 23.4 74.1 55 13.9 57
08:15 1026 30.3 855 25.25 23.1 73.7 54 13.4 56.2
08:20 1026 30.3 855 25.25 23.4 74.1 53 13.4 56.1
08:25 1026 30.3 855 25.25 23.5 74.3 54 13.9 57.1
08:30 1026 30.3 855 25.25 23.3 74 52 13.1 55.6
08:35 1026 30.3 855 25.25 24.2 75.5 48 12.6 54.7
08:40 1026 30.3 855 25.25 25.3 77.5 45 12.7 54.9
08:45 1026 30.3 855 25.25 24.4 75.8 49 13.3 55.9
08:50 1026 30.3 855 25.25 24.8 76.7 47 13 55.5
08:55 1026 30.3 855 25.25 25.3 77.6 46 13 55.4
09:00 1026 30.3 855 25.25 24.8 76.6 49 13.4 56.2
09:05 1026 30.3 855 25.25 24.9 76.7 49 13.5 56.4
09:10 1026 30.3 855 25.25 25.2 77.4 47 13.2 55.7
09:15 1026 30.3 855 25.25 25.2 77.4 46 12.9 55.1
09:20 1026 30.3 855 25.25 25.8 78.4 46 13.5 56.3
09:25 1026 30.3 855 25.25 25.2 77.4 47 13.2 55.7
09:30 1026 30.3 855 25.25 25.4 77.8 48 13.7 56.6
09:35 1026 30.3 855 25.25 24.7 76.4 49 13.5 56.4
09:40 1026 30.3 855 25.25 24.8 76.6 48 13.1 55.6
09:45 1026 30.3 855 25.25 25.8 78.5 45 13.1 55.7
09:50 1026 30.3 855 25.25 26 78.7 45 13.3 55.9
09:55 1026 30.3 855 25.25 25.9 78.7 45 13.2 55.7
10:00 1026 30.3 855 25.25 26.5 79.7 45 13.9 57
10:05 1026 30.3 855 25.25 26.2 79.1 47 14.2 57.5
10:10 1026 30.3 855 25.25 26.1 78.9 46 13.7 56.6
10:15 1026 30.3 855 25.25 26.2 79.2 45 13.6 56.4
10:20 1026 30.3 855 25.25 27.1 80.9 41 13 55.4
10:25 1026 30.3 855 25.25 26.5 79.6 45 13.8 56.8
10:30 1026 30.3 855 25.25 26.8 80.3 43 13.4 56.2
10:35 1026 30.3 855 25.25 27.1 80.9 44 14.2 57.6
10:40 1026 30.3 855 25.25 26.9 80.4 42 13.3 55.9
10:45 1026 30.3 855 25.25 27.3 81.2 42 13.5 56.3
10:50 1026 30.3 855 25.25 27 80.6 43 13.4 56.2
10:55 1026 30.3 855 25.25 27.3 81.1 44 14.2 57.6
11:00 1026 30.3 855 25.25 26.8 80.3 44 13.9 56.9
11:05 1026 30.3 855 25.25 27.5 81.5 43 14 57.3
11:10 1026 30.3 855 25.25 27.1 80.8 42 13.5 56.3
11:15 1025 30.27 855 25.25 27.4 81.4 42 13.5 56.3
11:20 1025 30.27 855 25.25 27.4 81.2 43 14 57.2
11:25 1025 30.27 855 25.25 27.1 80.7 43 13.6 56.4
11:30 1025 30.27 855 25.25 28.2 82.8 39 13.4 56.1
11:35 1025 30.27 855 25.25 27.9 82.2 42 14.2 57.5
11:40 1025 30.27 855 25.25 28.3 83 40 13.5 56.3
11:45 1025 30.27 855 25.25 29.1 84.3 37 13.2 55.8
11:50 1025 30.27 854 25.22 28.9 84 36 12.7 54.9
11:55 1025 30.27 854 25.22 28.5 83.3 39 13.5 56.3
12:00 1025 30.27 854 25.22 28.2 82.8 38 12.8 55.1
12:05 1025 30.27 854 25.22 29.2 84.6 34 12 53.5
12:10 1025 30.27 854 25.22 28.9 84 30 10 49.9
12:15 1025 30.27 854 25.22 29.3 84.7 30 10.2 50.4
12:20 1025 30.27 854 25.22 29.3 84.7 29 9.6 49.2
12:25 1025 30.27 854 25.22 29.7 85.4 27 8.8 47.8
12:30 1025 30.27 854 25.22 30.2 86.4 25 8.6 47.5
12:35 1025 30.27 854 25.22 30.3 86.5 26 9.2 48.5
12:40 1025 30.27 854 25.22 30.5 87 26 9 48.1
12:45 1025 30.27 854 25.22 30.3 86.5 25 8.2 46.7
12:50 1025 30.27 854 25.22 30.9 87.6 25 9 48.1
12:55 1025 30.27 854 25.22 30.8 87.4 26 9.5 49
13:00 1025 30.27 854 25.22 30.9 87.6 25 9.1 48.4
13:05 1025 30.27 854 25.22 30.1 86.2 26 8.7 47.6
13:10 1025 30.27 854 25.22 30.2 86.4 26 8.8 47.9
13:15 1025 30.27 854 25.22 30.6 87.1 26 9.2 48.6
13:20 1025 30.27 854 25.22 30.5 86.9 25 8.8 47.8
13:25 1025 30.27 854 25.22 29.9 85.9 25 8.4 47.1
13:30 1025 30.27 854 25.22 30.5 87 25 8.6 47.5
13:35 1025 30.27 854 25.22 30.3 86.6 25 8.5 47.4
13:40 1025 30.27 854 25.22 30 86 24 7.8 46.1
13:45 1025 30.27 854 25.22 30.3 86.5 26 9 48.2
13:50 1025 30.27 854 25.22 30.4 86.7 26 9.2 48.5
13:55 1025 30.27 854 25.22 31 87.8 25 9 48.2
14:00 1025 30.27 854 25.22 30.4 86.7 26 8.9 48
14:05 1025 30.27 854 25.22 30.9 87.7 26 9.7 49.5
14:10 1025 30.27 854 25.22 30.6 87 27 9.8 49.6
14:15 1025 30.27 854 25.22 30 86 27 9.5 49.1
14:20 1024 30.24 854 25.22 30.1 86.2 28 10.1 50.1
14:25 1024 30.24 854 25.22 29.7 85.4 30 10.7 51.2
14:30 1024 30.24 854 25.22 30 86 28 9.7 49.5
14:35 1024 30.24 854 25.22 29.7 85.5 28 9.7 49.4
14:40 1024 30.24 854 25.22 29.6 85.3 28 9.5 49.2
14:45 1024 30.24 854 25.22 29.9 85.9 29 10.3 50.6
14:50 1024 30.24 854 25.22 30 85.9 28 9.8 49.6
14:55 1024 30.24 854 25.22 30 86 28 9.6 49.4
15:00 1024 30.24 854 25.22 30.2 86.4 28 10 50
15:05 1024 30.24 853 25.19 30.2 86.3 29 10.4 50.7
15:10 1024 30.24 853 25.19 29.9 85.7 27 9.2 48.6
15:15 1024 30.24 853 25.19 29.7 85.4 28 9.8 49.6
15:20 1024 30.24 853 25.19 29.5 85.1 29 9.8 49.7
15:25 1024 30.24 853 25.19 29.5 85.2 29 10.1 50.2
15:30 1024 30.24 853 25.19 29.8 85.6 28 9.8 49.7
15:35 1024 30.24 853 25.19 30.4 86.6 28 10 49.9
15:40 1024 30.24 853 25.19 29.5 85.1 30 10.2 50.4
15:45 1024 30.24 853 25.19 30 86 28 9.6 49.3
15:50 1024 30.24 853 25.19 29.6 85.3 29 9.8 49.7
15:55 1024 30.24 853 25.19 29.6 85.4 27 8.7 47.7
16:00 1024 30.24 853 25.19 29.7 85.5 29 9.9 49.8
16:05 1024 30.24 853 25.19 29.5 85.2 29 9.8 49.7
16:10 1024 30.24 853 25.19 29.4 84.8 28 9.2 48.5
16:15 1024 30.24 853 25.19 29.6 85.2 29 10.2 50.3
16:20 1024 30.24 853 25.19 29.8 85.7 29 10.3 50.5
16:25 1024 30.24 853 25.19 29.8 85.7 29 10.3 50.5
16:30 1024 30.24 853 25.19 29.8 85.6 29 10.1 50.1
16:35 1024 30.24 853 25.19 29.5 85.1 29 10 50
16:40 1024 30.24 853 25.19 29.7 85.4 28 9.8 49.6
16:45 1024 30.24 853 25.19 29.4 84.9 29 9.9 49.8
16:50 1024 30.24 853 25.19 29.1 84.5 30 10.1 50.2
16:55 1024 30.24 853 25.19 29.2 84.5 29 9.5 49.2
17:00 1024 30.24 853 25.19 29.1 84.4 28 9.1 48.4
17:05 1024 30.24 853 25.19 29.1 84.3 29 9.5 49.1
17:10 1024 30.24 853 25.19 28.9 84 30 9.9 49.8
17:15 1024 30.24 853 25.19 28.8 83.8 32 10.6 51.2
17:20 1024 30.24 853 25.19 29 84.1 29 9.6 49.3
17:25 1024 30.24 853 25.19 28.8 83.8 32 10.6 51.1
17:30 1024 30.24 853 25.19 28.9 84 32 10.8 51.5
17:35 1024 30.24 853 25.19 28.7 83.6 32 10.7 51.3
17:40 1024 30.24 853 25.19 28.6 83.5 31 10.3 50.6
17:45 1024 30.24 853 25.19 28.5 83.2 31 9.8 49.7
17:50 1024 30.24 853 25.19 28.3 83 33 10.7 51.2
17:55 1024 30.24 853 25.19 28.2 82.7 34 11.2 52.2
18:00 1024 30.24 853 25.19 28 82.4 35 11.3 52.4
18:05 1024 30.24 853 25.19 27.8 82 34 10.7 51.3
18:10 1024 30.24 853 25.19 27.8 82 34 10.6 51.1
18:15 1024 30.24 853 25.19 27.7 81.9 34 10.5 50.9
18:20 1024 30.24 853 25.19 27.5 81.5 35 10.9 51.7
18:25 1024 30.24 853 25.19 27.3 81.1 35 10.7 51.3
18:30 1024 30.24 853 25.19 27 80.7 35 10.7 51.2
18:35 1024 30.24 853 25.19 27 80.5 35 10.6 51.2
18:40 1024 30.24 853 25.19 26.8 80.3 36 10.6 51.1
18:45 1024 30.24 853 25.19 26.8 80.3 36 10.7 51.2
18:50 1024 30.24 853 25.19 26.7 80.1 37 10.9 51.6
18:55 1024 30.24 853 25.19 26.6 79.8 36 10.6 51
19:00 1024 30.24 853 25.19 26.5 79.7 38 11.3 52.4
19:05 1024 30.24 853 25.19 26.4 79.4 38 11 51.8
19:10 1024 30.24 853 25.19 26.3 79.4 38 11.2 52.2
19:15 1024 30.24 853 25.19 26.2 79.2 38 11.2 52.2
19:20 1024 30.24 853 25.19 26.1 79 39 11.3 52.4
19:25 1024 30.24 853 25.19 26 78.8 39 11.3 52.3
19:30 1024 30.24 853 25.19 25.9 78.7 38 10.8 51.5
19:35 1024 30.24 853 25.19 26 78.7 39 11.3 52.4
19:40 1024 30.24 853 25.19 25.7 78.3 40 11.3 52.3
19:45 1024 30.24 853 25.19 25.6 78.1 40 11.4 52.5
19:50 1024 30.24 853 25.19 25.5 77.9 40 11.2 52.2
19:55 1024 30.24 853 25.19 25.4 77.6 41 11.3 52.4
20:00 1024 30.24 853 25.19 25.2 77.4 41 11.1 52.1
20:05 1024 30.24 853 25.19 25.2 77.3 41 11.2 52.2
20:10 1024 30.24 853 25.19 24.9 76.9 43 11.6 52.9
20:15 1024 30.24 853 25.19 24.6 76.3 43 11.5 52.7
20:20 1024 30.24 853 25.19 24.6 76.2 42 11.1 52.1
20:25 1024 30.24 853 25.19 24.7 76.4 41 10.9 51.6
20:30 1024 30.24 853 25.19 24.9 76.7 40 10.6 51.1
20:35 1024 30.24 853 25.19 24.9 76.9 40 10.6 51.1
20:40 1024 30.24 853 25.19 24.8 76.7 40 10.6 51.1
20:45 1024 30.24 853 25.19 24.6 76.3 42 11 51.7
20:50 1024 30.24 853 25.19 24.4 76 42 11 51.8
20:55 1024 30.24 853 25.19 24.2 75.5 43 11.2 52.1
21:00 1024 30.24 854 25.22 23.9 75 44 11 51.8
21:05 1024 30.24 854 25.22 23.8 74.8 44 10.9 51.5
21:10 1024 30.24 854 25.22 23.9 74.9 44 10.9 51.6
21:15 1024 30.24 854 25.22 23.8 74.9 43 10.8 51.4
21:20 1025 30.27 854 25.22 23.8 74.8 43 10.7 51.2
21:25 1025 30.27 854 25.22 23.8 74.8 43 10.5 50.9
21:30 1025 30.27 854 25.22 23.7 74.6 43 10.4 50.8
21:35 1025 30.27 854 25.22 23.6 74.4 43 10.6 51
21:40 1025 30.27 854 25.22 23.5 74.2 43 10.5 50.9
21:45 1025 30.27 854 25.22 23.4 74.1 44 10.6 51
21:50 1025 30.27 854 25.22 23.3 74 44 10.5 50.9
21:55 1025 30.27 854 25.22 23.3 73.9 44 10.5 50.9
22:00 1025 30.27 854 25.22 23.3 73.9 45 10.7 51.2
22:05 1025 30.27 854 25.22 23.2 73.7 45 10.8 51.5
22:10 1024 30.24 854 25.22 23.1 73.5 46 10.9 51.6
22:15 1024 30.24 854 25.22 22.9 73.3 47 11 51.9
22:20 1024 30.24 854 25.22 22.8 73 47 11.1 51.9
22:25 1024 30.24 854 25.22 22.6 72.8 47 11 51.8
22:30 1024 30.24 854 25.22 22.6 72.7 47 10.9 51.6
22:35 1025 30.27 854 25.22 22.6 72.6 46 10.6 51.2
22:40 1024 30.24 854 25.22 22.6 72.8 46 10.6 51.1
22:45 1024 30.24 854 25.22 22.5 72.5 47 10.7 51.2
22:50 1024 30.24 854 25.22 22.4 72.3 47 10.7 51.2
22:55 1024 30.24 854 25.22 22.3 72.2 47 10.7 51.3
23:00 1024 30.24 854 25.22 22.1 71.8 48 10.7 51.3
23:05 1024 30.24 854 25.22 22.1 71.7 48 10.6 51
23:10 1024 30.24 854 25.22 22.1 71.7 47 10.5 50.9
23:15 1025 30.27 854 25.22 22 71.6 47 10.5 50.8
23:20 1025 30.27 854 25.22 22 71.5 47 10.3 50.5
23:25 1025 30.27 854 25.22 22 71.5 47 10.2 50.4
23:30 1025 30.27 854 25.22 21.9 71.5 47 10.2 50.4
23:35 1025 30.27 854 25.22 22 71.5 47 10.4 50.7
23:40 1024 30.24 854 25.22 21.8 71.3 47 10.2 50.4
23:45 1024 30.24 854 25.22 21.8 71.3 47 10.2 50.3
23:50 1024 30.24 854 25.22 21.7 71.1 48 10.3 50.5
23:55 1025 30.27 854 25.22 21.6 70.9 47 10.1 50.2
24:00 1024 30.24 854 25.22 21.5 70.7 48 10.3 50.6